Startpagina
METAR-TAF:

METAR-TAF

Vliegvelden :

Bournemouth Airport

Bournemouth, Engeland

breedte: 50-47N, lengte: 001-50W, hoogte: 11 m

Actueel weer

Dit bericht is 5 uur en het 18 minuten geleden gemaakt, om 20:20 UTC
Wind 6 kt uit het oostnoordoosten
Temperatuur 6°C
Vochtigheid 87%
Druk 1027 hPa
Zicht: 8000 m
Geheel bewolkt op 800 ft

METAR: EGHH 232020Z 06006KT 8000 OVC008 06/04 Q1027

Tijdstip: 01:38 (01:38 UTC)

Verwachting

Dit bericht is 5 uur en het 39 minuten geleden gemaakt, om 19:59 UTC
Verwachting geldig van 23 om 21 UTC tot 24 om 06 UTC
Wind 4 kt uit het oostnoordoosten
Zicht 10 km of meer
Gebroken wolken op 1200 ft
Tijdelijke
van 23 om 21 UTC tot 24 om 06 UTC
Zicht: 6000 m
Gebroken wolken op 800 ft
Kans 40% :
Tijdelijke
van 24 om 00 UTC tot 24 om 06 UTC
Zicht: 4000 m
Gebroken wolken op 400 ft
nevel

TAF: EGHH 231959Z 2321/2406 07004KT 9999 BKN012 TEMPO 2321/2406 6000 BKN008 PROB40 TEMPO 2400/2406 4000 BR BKN004

Waarnemingen en weersverwachtingen van meer dan 4000 vliegvelden (METAR en TAF).

De beschikbare stations zijn de gele en rode punten op de kaart.

Ga met uw muis naar het station om de naam te zien.

Klik dan om waarnemingen en weersverwachtingen te zien.

kaart wijzigen: klik op de groene knoppen met een zwart kruis om in te zoomen, op de groene knop met een streepje om uit te zoomen of op de groene pijlen voor aangrenzende kaarten.


METAR-TAF: